Amesbury, MA

2:26 PM EDT on May 06, 2015 (GMT -0400)
Lawrence Municipal | | Change Station
CLOSE
Current Station
Airport
Location: Lawrence,
Elevation: 148 ft
Nearby Weather Stations

Elev 148 ft 42.72 °N, 71.12 °W | Updated 32 minutes ago

Clear
Clear
74 °F
Feels Like 74 °F
N
4
Wind Variable Wind from Variable

Today
High -- | Low -- °F
--% Chance of Precip.
Yesterday
High -- | Low -- °F
Precip. -- in
5:31 AM 7:49 PM
Waning Gibbous, 93% visible
Pressure 30.23 in
Visibility 10.0 miles
Clouds Clear
Dew Point 29 °F
Humidity 19%
Rainfall 0.00 in
Snow Depth Not available.
UV 10 out of 12
Pollen 11.00 out of 12
Air Quality Not available.
Flu Activity Widespread
METAR KLWM 061754Z VRB03KT 10SM CLR 23/M02 A3023 RMK AO2 SLP237 T02331017 10233 20139 58025

More Conditions Fewer Conditions

Pressure 30.23 in
Visibility 10.0 miles
Clouds Clear
Dew Point 29 °F
Humidity 19%
Rainfall 0.00 in
Snow Depth Not available.
UV 10 out of 12
Pollen 11.00 out of 12
Air Quality Not available.
Flu Activity Widespread
METAR KLWM 061754Z VRB03KT 10SM CLR 23/M02 A3023 RMK AO2 SLP237 T02331017 10233 20139 58025

More Conditions Fewer Conditions

10-Day Weather Forecast

Almanac

Astronomy

May. 06, 2015 Rise Set
Actual Time
Civil Twilight
Nautical Twilight
Astronomical Twilight
Moon
Length of Visible Light
Length of Day
Tomorrow will be .
, % of the Moon is Illuminated

Today's Extremes

State Highs State Lows

Community

WunderPhotos

Upload Photos

1,818,968 photos uploaded!

WunderBlogs® & News

Nearby

Air Quality

  Air Quality AQ Index Pollutant
Not available.

Snow Depth

Station Depth Elevation

Earthquake Activity

City Distance Mag. Time & Date
Minimum magnitude displayed is 2.5.

Coastal Water Temperatures

Place Temperature

Stations

Nearby Weather Stations

Station Location Temp. Windchill Dew Point Humidity Wind Precip. Elev Updated Type